Hauptseite
METAR-TAF:

METAR-TAF

Flughäfen :

Flughafen Stord. Sørstokken

Stord, Norwegen

Breite: 59-48N, Länge: 005-21E, Höhe: 49 m

Beobachtung

Neuester Wetterbericht von vor 30 Minuten, um 17:20 UTC
Wind 5 kt aus West/Nordwest
Temperatur 16°C
Luftfeuchtigkeit 88%
Luftdruck 1015 hPa
Sichtweite 10 km oder mehr
Regenschauer,

METAR: ENSO 231720Z 29005KT 9999 -SHRA NSC 16/14 Q1015

Zeit: 19:50 (17:50 UTC)

Prognose

Neuester Wetterbericht von vor 2 Stunden und 22 Minuten, um 15:28 UTC
Gültige Prognose vom 23 um 15 UTC bis 23 um 18 UTC
Wind 8 kt aus West/Südwest
Sichtweite 10 km oder mehr
keine Wolken unter 1500 m und keine Kumulonimbus oder Gewitterwolken

TAF: ENSO 231528Z 2315/2318 25008KT CAVOK

Wetterbeobachtungen und Prognosen von mehr als 4000 Flughäfen (METAR und TAF Bericht).

Die verfügbaren Stationen werden durch gelbe und rote Markierungen auf der Karte dargestellt.

Führen Sie die Maus auf sie, um den Namen der Station zu sehen.

Darauf klicken, um die Beobachtung von Wetterbeobachtungen und Prognosen zu sehen.

Um die Karte zu ändern : klicken Sie auf den grünen Tasten mit einem schwarzen Kreuz Zum Vergrößern, auf den grünen Button mit einem Gedankenstrich zu verkleinern, oder auf die grünen Pfeile für benachbarte Karten.


METAR-TAF: